Tropical Cyclones
[Index]
Main Index Home Page Stock Weather Photos Extreme Storms Discussion Storm News and Storm Chasing Reports Tropical Cyclones / Hurricanes / Typhoons Weather Data and Links Wild Fires / Bushfires Weather Observation Techniques Weather Picture Catalogue Tornado Pictures and Reports Stock Video Footage and DVDs for sale
Season 1970-1971 Tropical Cyclone POLLY Track Map
Season 1970-1971 Summaries: [BoM-AU] [JTWC-AU] [JTWC-SIO] [JTWC-SPAC] [JTWC-SH]
<<- Previous TC | BoM 1970-1971 Season | Next TC ->>

click for intensity scale information  Lat/long Grid: Show Hide

 Date Labels: Show Hide

Bureau of Meteorology Tropical Cyclone Data

Name: POLLY
Number: 470 / 197071_08

20 Jan 1971 00:00 UTC to 29 Jan 1971 00:00 UTC

    date/time    lat    long    hPa   cat  kts
1971-01-20 00   11.0    93.5    998                     
1971-01-20 03   11.0    93.3    998                     
1971-01-20 06   11.0    93.1    998                     
1971-01-20 09   11.0    92.9    998                     
1971-01-20 12   11.0    92.7    998                     
1971-01-20 15   11.0    92.6    998                     
1971-01-20 18   11.0    92.4    998                     
1971-01-20 21   11.0    92.2    998                     
1971-01-21 00   11.0    92.0    998                     
1971-01-21 03   11.0    91.8    998                     
1971-01-21 06   11.0    91.6    998                     
1971-01-21 09   11.0    91.4    997                     
1971-01-21 12   11.0    91.2    997                     
1971-01-21 15   11.0    91.0    997                     
1971-01-21 18   11.0    90.8    996                     
1971-01-21 21   11.0    90.7    996                     
1971-01-22 00   11.0    90.5    996                     
1971-01-22 03   11.0    90.0    995    1                
1971-01-22 06   11.0    89.0    994    1                
1971-01-22 09   11.0    88.0    993    1                
1971-01-22 12   11.1    87.5    992    1                
1971-01-22 15   11.2    87.0    992    1                
1971-01-22 18   11.3    86.5    990    1                
1971-01-22 21   11.5    86.0    990    1                
1971-01-23 00   11.8    85.5    990    1                
1971-01-23 03   12.0    85.6    989    1                
1971-01-23 06   12.3    85.7    988    1                
1971-01-23 09   12.6    85.8    987    1                
1971-01-23 12   13.0    85.8    987    1                
1971-01-23 15   13.4    85.8    986    1                
1971-01-23 18   13.9    85.8    986    1                
1971-01-23 21   14.3    85.8    985    2                
1971-01-24 00   14.8    85.8    985    2                
1971-01-24 03   15.2    85.8    984    2                
1971-01-24 06   15.7    85.8    984    2                
1971-01-24 09   16.3    85.8    983    2                
1971-01-24 12   16.9    85.9    983    2                
1971-01-24 15   17.5    85.9    982    2                
1971-01-24 18   18.1    86.0    982    2                
1971-01-24 21   18.7    86.0    981    2                
1971-01-25 00   19.3    86.1    980    2                
1971-01-25 03   19.9    86.2    982    2                
1971-01-25 06   20.5    86.3    984    2                
1971-01-25 09   21.2    86.4    986    1                
1971-01-25 12   21.8    86.5    989    1                
1971-01-25 15   22.4    86.6    992    1                
1971-01-25 18   22.8    86.8    995    1                
1971-01-25 21   23.0    87.0    997                     
1971-01-26 00   23.2    87.2    998                     
1971-01-26 03   23.4    87.3    999                     
1971-01-26 06   23.7    87.4   1000                     
1971-01-26 09   24.0    87.5   1000                     
1971-01-26 12   24.3    87.6   1001                     
1971-01-26 15   24.6    87.7   1001                     
1971-01-26 18   24.9    87.8   1002                     
1971-01-26 21   25.2    87.9   1003                     
1971-01-27 00   25.5    88.0   1004                     
1971-01-27 03   25.8    88.2   1004                     
1971-01-27 06   26.1    88.4   1004                     
1971-01-27 09   26.4    88.6   1004                     
1971-01-27 12   26.6    88.8   1005                     
1971-01-27 15   26.8    89.0   1005                     
1971-01-27 18   26.7    89.5   1006                     
1971-01-27 21   26.6    89.7   1006                     
1971-01-28 00   26.5    90.0   1006                     
1971-01-28 03   26.4    90.1   1006                     
1971-01-28 06   26.2    90.2   1006                     
1971-01-28 12   25.8    90.2   1006                     
1971-01-28 15   25.6    90.1   1006                     
1971-01-28 18   25.4    90.1   1006                     
1971-01-28 21   25.2    90.0   1006                     
1971-01-29 00   25.0    90.0   1006                     
Winds are 10-min average.

Tropical cyclone tracks developed by Michael Bath using data from the Bureau of Meteorology and Google Maps.


[Australian Severe Weather index] [Copyright Notice] [Email Contacts] [Search This Site] [Privacy Policy]
Document: tropical_cyclone_polly.htm Updated: 30 May 2013